createdAt,value
2022-08-12T00:00:04.989Z,0.00
2022-08-12T00:01:04.971Z,0.00
2022-08-12T00:02:05.889Z,0.00
2022-08-12T00:03:04.956Z,0.00
2022-08-12T00:04:04.940Z,0.00
2022-08-12T00:05:04.910Z,0.00
2022-08-12T00:06:05.307Z,0.00
2022-08-12T00:07:04.875Z,0.00
2022-08-12T00:08:04.879Z,0.00
2022-08-12T00:09:04.867Z,0.00
2022-08-12T00:10:04.902Z,0.00
2022-08-12T00:11:09.716Z,0.00
2022-08-12T00:12:06.514Z,0.00
2022-08-12T00:13:04.810Z,0.00
2022-08-12T00:14:04.820Z,0.00
2022-08-12T00:15:04.777Z,0.00
2022-08-12T00:16:04.779Z,0.00
2022-08-12T00:17:04.753Z,0.00
2022-08-12T00:18:04.738Z,0.00
2022-08-12T00:19:04.825Z,0.00
2022-08-12T00:20:04.731Z,0.00
2022-08-12T00:21:04.717Z,0.00
2022-08-12T00:22:04.751Z,0.00
2022-08-12T00:23:04.667Z,0.00
2022-08-12T00:24:04.690Z,0.00
2022-08-12T00:25:04.659Z,0.00
2022-08-12T00:26:23.416Z,0.00
2022-08-12T00:27:05.609Z,0.00
2022-08-12T00:28:04.598Z,0.00
2022-08-12T00:29:04.594Z,0.00
2022-08-12T00:30:04.683Z,0.00
2022-08-12T00:31:05.355Z,0.00
2022-08-12T00:32:04.636Z,0.00
2022-08-12T00:33:04.534Z,0.00
2022-08-12T00:34:05.260Z,0.00
2022-08-12T00:35:08.650Z,0.00
2022-08-12T00:36:04.495Z,0.00
2022-08-12T00:37:11.321Z,0.00
2022-08-12T00:38:05.517Z,0.00
2022-08-12T00:39:04.455Z,0.00
2022-08-12T00:40:04.761Z,0.00
2022-08-12T00:41:05.431Z,0.00
2022-08-12T00:42:04.420Z,0.00
2022-08-12T00:43:04.464Z,0.00
2022-08-12T00:44:04.400Z,0.00
2022-08-12T00:45:04.400Z,0.00
2022-08-12T00:46:04.407Z,0.00
2022-08-12T00:47:04.619Z,0.00
2022-08-12T00:48:04.330Z,0.00
2022-08-12T00:49:04.395Z,0.00
2022-08-12T00:50:04.340Z,0.00
2022-08-12T00:51:04.305Z,0.00
2022-08-12T00:52:04.282Z,0.00
2022-08-12T00:53:04.284Z,0.00
2022-08-12T00:54:04.255Z,0.00
2022-08-12T00:55:04.336Z,0.00
2022-08-12T00:56:04.231Z,0.00
2022-08-12T00:57:04.227Z,0.00
2022-08-12T00:58:04.200Z,0.00
2022-08-12T00:59:04.471Z,0.00
2022-08-12T01:00:04.231Z,0.00
2022-08-12T01:01:04.222Z,0.00
2022-08-12T01:02:11.903Z,0.00
2022-08-12T01:03:05.166Z,0.00
2022-08-12T01:04:04.128Z,0.00
2022-08-12T01:05:04.187Z,0.00
2022-08-12T01:06:04.183Z,0.00
2022-08-12T01:07:04.096Z,0.00
2022-08-12T01:08:04.076Z,0.00
2022-08-12T01:09:04.057Z,0.00
2022-08-12T01:10:04.062Z,0.00
2022-08-12T01:11:04.048Z,0.00
2022-08-12T01:12:04.008Z,0.00
2022-08-12T01:13:07.445Z,0.00
2022-08-12T01:14:05.002Z,0.00
2022-08-12T01:15:03.978Z,0.00
2022-08-12T01:16:03.977Z,0.00
2022-08-12T01:17:04.003Z,0.00
2022-08-12T01:18:03.937Z,0.00
2022-08-12T01:19:03.945Z,0.00
2022-08-12T01:20:03.919Z,0.00
2022-08-12T01:21:03.944Z,0.00
2022-08-12T01:22:03.928Z,0.00
2022-08-12T01:23:04.152Z,0.00
2022-08-12T01:24:29.924Z,0.00
2022-08-12T01:25:04.845Z,0.00
2022-08-12T01:26:03.835Z,0.00
2022-08-12T01:27:07.641Z,0.00
2022-08-12T01:28:03.811Z,0.00
2022-08-12T01:29:03.793Z,0.00
2022-08-12T01:30:03.791Z,0.00
2022-08-12T01:31:03.774Z,0.00
2022-08-12T01:32:04.935Z,0.00
2022-08-12T01:33:03.734Z,0.00
2022-08-12T01:34:03.772Z,0.00
2022-08-12T01:35:03.713Z,0.00
2022-08-12T01:36:08.364Z,0.00
2022-08-12T01:37:04.724Z,0.00
2022-08-12T01:38:03.694Z,0.00
2022-08-12T01:39:03.680Z,0.00
2022-08-12T01:40:31.378Z,0.00
2022-08-12T01:41:04.783Z,0.00
2022-08-12T01:42:03.634Z,0.00
2022-08-12T01:43:03.603Z,0.00
2022-08-12T01:44:06.324Z,0.00
2022-08-12T01:45:03.584Z,0.00
2022-08-12T01:46:03.572Z,0.00
2022-08-12T01:47:03.611Z,0.00
2022-08-12T01:48:03.889Z,0.00
2022-08-12T01:49:03.549Z,0.00
2022-08-12T01:50:03.512Z,0.00
2022-08-12T01:51:05.282Z,0.00
2022-08-12T01:52:21.381Z,0.00
2022-08-12T01:53:04.480Z,0.00
2022-08-12T01:54:03.480Z,0.00
2022-08-12T01:55:03.470Z,0.00
2022-08-12T01:56:03.443Z,0.00
2022-08-12T01:57:03.525Z,0.00
2022-08-12T01:58:04.237Z,0.00
2022-08-12T01:59:04.400Z,0.00
2022-08-12T02:00:03.390Z,0.00
2022-08-12T02:01:03.433Z,0.00
2022-08-12T02:02:03.380Z,0.00
2022-08-12T02:03:03.336Z,0.00
2022-08-12T02:04:03.345Z,0.00
2022-08-12T02:05:03.343Z,0.00
2022-08-12T02:06:03.331Z,0.00
2022-08-12T02:07:03.333Z,0.00
2022-08-12T02:08:03.345Z,0.00
2022-08-12T02:09:03.291Z,0.00
2022-08-12T02:10:03.293Z,0.00
2022-08-12T02:11:03.237Z,0.00
2022-08-12T02:12:03.246Z,0.00
2022-08-12T02:13:03.196Z,0.00
2022-08-12T02:14:03.192Z,0.00
2022-08-12T02:15:03.215Z,0.00
2022-08-12T02:16:03.166Z,0.00
2022-08-12T02:17:03.181Z,0.00
2022-08-12T02:18:03.143Z,0.00
2022-08-12T02:19:03.156Z,0.00
2022-08-12T02:20:04.123Z,0.00
2022-08-12T02:21:03.804Z,0.00
2022-08-12T02:22:04.823Z,0.00
2022-08-12T02:23:03.108Z,0.00
2022-08-12T02:24:03.064Z,0.00
2022-08-12T02:25:03.324Z,0.00
2022-08-12T02:26:03.043Z,0.00
2022-08-12T02:27:03.062Z,0.00
2022-08-12T02:28:06.092Z,0.00
2022-08-12T02:29:03.993Z,0.00
2022-08-12T02:30:03.001Z,0.00
2022-08-12T02:31:02.981Z,0.00
2022-08-12T02:32:03.000Z,0.00
2022-08-12T02:33:02.950Z,0.00
2022-08-12T02:34:02.983Z,0.00
2022-08-12T02:35:02.947Z,0.00
2022-08-12T02:36:02.921Z,0.00
2022-08-12T02:37:03.931Z,0.00
2022-08-12T02:38:02.903Z,0.00
2022-08-12T02:39:02.874Z,0.00
2022-08-12T02:40:02.848Z,0.00
2022-08-12T02:41:02.854Z,0.00
2022-08-12T02:42:02.835Z,0.00
2022-08-12T02:43:02.831Z,0.00
2022-08-12T02:44:02.787Z,0.00
2022-08-12T02:45:02.794Z,0.00
2022-08-12T02:46:02.830Z,0.00
2022-08-12T02:47:02.771Z,0.00
2022-08-12T02:48:02.756Z,0.00
2022-08-12T02:49:02.750Z,0.00
2022-08-12T02:50:02.716Z,0.00
2022-08-12T02:51:02.715Z,0.00
2022-08-12T02:52:02.736Z,0.00
2022-08-12T02:53:02.724Z,0.00
2022-08-12T02:54:05.497Z,0.00
2022-08-12T02:55:02.666Z,0.00
2022-08-12T02:56:02.666Z,0.00
2022-08-12T02:57:02.624Z,0.00
2022-08-12T02:58:04.234Z,0.00
2022-08-12T02:59:02.610Z,0.00
2022-08-12T03:00:02.591Z,0.00
2022-08-12T03:01:02.657Z,0.00
2022-08-12T03:02:02.549Z,0.00
2022-08-12T03:03:02.576Z,0.00
2022-08-12T03:04:02.532Z,0.00
2022-08-12T03:05:02.570Z,0.00
2022-08-12T03:06:02.495Z,0.00
2022-08-12T03:07:02.508Z,0.00
2022-08-12T03:08:02.518Z,0.00
2022-08-12T03:09:02.475Z,0.00
2022-08-12T03:10:05.515Z,0.00
2022-08-12T03:11:02.441Z,0.00
2022-08-12T03:12:02.478Z,0.00
2022-08-12T03:13:02.441Z,0.00
2022-08-12T03:14:02.399Z,0.00
2022-08-12T03:15:02.383Z,0.00
2022-08-12T03:16:02.366Z,0.00
2022-08-12T03:17:02.396Z,0.00
2022-08-12T03:18:25.746Z,0.00
2022-08-12T03:19:03.325Z,0.00
2022-08-12T03:20:09.998Z,0.00
2022-08-12T03:21:03.302Z,0.00
2022-08-12T03:22:08.539Z,0.00
2022-08-12T03:23:03.292Z,0.00
2022-08-12T03:24:02.301Z,0.00
2022-08-12T03:25:02.247Z,0.00
2022-08-12T03:26:03.168Z,0.00
2022-08-12T03:27:02.233Z,0.00
2022-08-12T03:28:02.203Z,0.00
2022-08-12T03:29:02.235Z,0.00
2022-08-12T03:30:02.295Z,0.00
2022-08-12T03:31:02.167Z,0.00
2022-08-12T03:32:02.149Z,0.00
2022-08-12T03:33:06.252Z,0.00
2022-08-12T03:34:03.307Z,0.00
2022-08-12T03:35:02.121Z,0.00
2022-08-12T03:36:02.095Z,0.00
2022-08-12T03:37:02.080Z,0.00
2022-08-12T03:38:02.068Z,0.00
2022-08-12T03:39:02.103Z,0.00
2022-08-12T03:40:02.105Z,0.00
2022-08-12T03:41:02.053Z,0.00
2022-08-12T03:42:02.010Z,0.00
2022-08-12T03:43:02.005Z,0.00
2022-08-12T03:44:01.990Z,0.00
2022-08-12T03:45:02.115Z,0.00
2022-08-12T03:46:01.969Z,0.00
2022-08-12T03:47:02.615Z,0.00
2022-08-12T03:48:01.924Z,5.62
2022-08-12T03:49:01.925Z,5.62
2022-08-12T03:50:01.909Z,5.62
2022-08-12T03:51:01.918Z,5.62
2022-08-12T03:52:01.888Z,5.62
2022-08-12T03:53:01.854Z,5.62
2022-08-12T03:54:01.839Z,5.62
2022-08-12T03:55:01.878Z,5.62
2022-08-12T03:56:01.844Z,5.62
2022-08-12T03:57:01.809Z,11.25
2022-08-12T03:58:01.786Z,11.25
2022-08-12T03:59:01.797Z,11.25
2022-08-12T04:00:13.077Z,11.25
2022-08-12T04:01:02.877Z,11.25
2022-08-12T04:02:01.726Z,11.25
2022-08-12T04:03:01.923Z,11.25
2022-08-12T04:04:01.703Z,16.88
2022-08-12T04:05:01.801Z,16.88
2022-08-12T04:06:01.756Z,16.88
2022-08-12T04:07:01.661Z,16.88
2022-08-12T04:08:01.652Z,16.88
2022-08-12T04:09:01.660Z,16.88
2022-08-12T04:10:01.630Z,22.50
2022-08-12T04:11:05.410Z,22.50
2022-08-12T04:12:01.598Z,22.50
2022-08-12T04:13:01.610Z,22.50
2022-08-12T04:14:01.605Z,22.50
2022-08-12T04:15:01.633Z,28.12
2022-08-12T04:16:01.552Z,28.12
2022-08-12T04:17:01.588Z,28.12
2022-08-12T04:18:06.519Z,28.12
2022-08-12T04:19:02.559Z,28.12
2022-08-12T04:20:01.513Z,28.12
2022-08-12T04:21:01.489Z,33.75
2022-08-12T04:22:03.523Z,33.75
2022-08-12T04:23:01.507Z,33.75
2022-08-12T04:24:01.449Z,33.75
2022-08-12T04:25:01.778Z,33.75
2022-08-12T04:26:01.413Z,39.38
2022-08-12T04:27:01.426Z,39.38
2022-08-12T04:28:13.028Z,39.38
2022-08-12T04:29:02.383Z,39.38
2022-08-12T04:30:31.371Z,39.38
2022-08-12T04:31:02.370Z,45.00
2022-08-12T04:32:01.336Z,45.00
2022-08-12T04:33:01.363Z,45.00
2022-08-12T04:34:01.314Z,45.00
2022-08-12T04:35:01.368Z,45.00
2022-08-12T04:36:01.289Z,45.00
2022-08-12T04:37:01.293Z,50.62
2022-08-12T04:38:01.311Z,50.62
2022-08-12T04:39:01.286Z,50.62
2022-08-12T04:40:01.259Z,50.62
2022-08-12T04:41:01.216Z,50.62
2022-08-12T04:42:01.202Z,50.62
2022-08-12T04:43:01.699Z,56.25
2022-08-12T04:44:02.583Z,56.25
2022-08-12T04:45:01.335Z,56.25
2022-08-12T04:46:01.152Z,56.25
2022-08-12T04:47:01.168Z,56.25
2022-08-12T04:48:01.128Z,56.25
2022-08-12T04:49:01.129Z,61.88
2022-08-12T04:50:01.118Z,61.88
2022-08-12T04:51:01.115Z,61.88
2022-08-12T04:52:01.082Z,61.88
2022-08-12T04:53:01.078Z,61.88
2022-08-12T04:54:01.085Z,61.88
2022-08-12T04:55:01.057Z,61.88
2022-08-12T04:56:01.046Z,67.50
2022-08-12T04:57:04.182Z,67.50
2022-08-12T04:58:01.001Z,67.50
2022-08-12T04:59:00.984Z,67.50
2022-08-12T05:00:00.995Z,67.50
2022-08-12T05:01:00.963Z,67.50
2022-08-12T05:02:01.001Z,67.50
2022-08-12T05:03:00.978Z,67.50
2022-08-12T05:04:01.652Z,73.12
2022-08-12T05:05:01.348Z,73.12
2022-08-12T05:06:00.894Z,73.12
2022-08-12T05:07:00.886Z,73.12
2022-08-12T05:08:00.854Z,73.12
2022-08-12T05:09:00.921Z,73.12
2022-08-12T05:10:02.456Z,73.12
2022-08-12T05:11:00.823Z,73.12
2022-08-12T05:12:00.817Z,78.75
2022-08-12T05:13:00.795Z,78.75
2022-08-12T05:14:00.785Z,78.75
2022-08-12T05:15:00.799Z,78.75
2022-08-12T05:16:04.487Z,78.75
2022-08-12T05:17:00.739Z,78.75
2022-08-12T05:18:02.207Z,78.75
2022-08-12T05:19:01.701Z,78.75
2022-08-12T05:20:00.736Z,84.38
2022-08-12T05:21:00.917Z,84.38
2022-08-12T05:22:00.701Z,84.38
2022-08-12T05:23:07.462Z,84.38
2022-08-12T05:24:01.684Z,84.38
2022-08-12T05:25:00.695Z,84.38
2022-08-12T05:26:04.359Z,84.38
2022-08-12T05:27:00.678Z,90.00
2022-08-12T05:28:00.591Z,90.00
2022-08-12T05:29:00.597Z,90.00
2022-08-12T05:30:07.199Z,101.25
2022-08-12T05:31:01.551Z,106.88
2022-08-12T05:32:00.553Z,95.62
2022-08-12T05:33:00.633Z,95.62
2022-08-12T05:34:00.530Z,95.62
2022-08-12T05:35:00.499Z,90.00
2022-08-12T05:36:00.585Z,90.00
2022-08-12T05:37:00.493Z,90.00
2022-08-12T05:38:00.474Z,90.00
2022-08-12T05:39:00.447Z,90.00
2022-08-12T05:40:00.562Z,95.62
2022-08-12T05:41:00.496Z,95.62
2022-08-12T05:42:00.436Z,95.62
2022-08-12T05:43:01.084Z,95.62
2022-08-12T05:44:01.332Z,95.62
2022-08-12T05:45:00.353Z,95.62
2022-08-12T05:46:00.651Z,95.62
2022-08-12T05:47:00.391Z,95.62
2022-08-12T05:48:00.345Z,95.62
2022-08-12T05:49:00.318Z,95.62
2022-08-12T05:50:00.295Z,95.62
2022-08-12T05:51:00.367Z,95.62
2022-08-12T05:52:00.277Z,101.25
2022-08-12T05:53:00.322Z,101.25
2022-08-12T05:54:00.280Z,101.25
2022-08-12T05:55:00.245Z,101.25
2022-08-12T05:56:00.306Z,101.25
2022-08-12T05:57:00.246Z,101.25
2022-08-12T05:58:00.225Z,101.25
2022-08-12T05:59:00.347Z,101.25
2022-08-12T06:00:00.253Z,101.25
2022-08-12T06:01:00.159Z,101.25
2022-08-12T06:02:08.985Z,101.25
2022-08-12T06:03:01.458Z,101.25
2022-08-12T06:04:00.126Z,101.25
2022-08-12T06:05:00.124Z,101.25
2022-08-12T06:06:00.120Z,106.88
2022-08-12T06:07:00.073Z,106.88
2022-08-12T06:08:03.912Z,106.88
2022-08-12T06:09:00.055Z,106.88
2022-08-12T06:10:00.051Z,106.88
2022-08-12T06:11:00.036Z,106.88
2022-08-12T06:12:05.954Z,106.88
2022-08-12T06:13:00.991Z,106.88
2022-08-12T06:13:59.986Z,106.88
2022-08-12T06:14:59.978Z,106.88
2022-08-12T06:16:04.173Z,106.88
2022-08-12T06:16:59.962Z,106.88
2022-08-12T06:17:59.979Z,106.88
2022-08-12T06:19:03.878Z,106.88
2022-08-12T06:20:27.658Z,106.88
2022-08-12T06:21:01.964Z,106.88
2022-08-12T06:21:59.901Z,106.88
2022-08-12T06:22:59.861Z,106.88
2022-08-12T06:23:59.868Z,112.50
2022-08-12T06:24:59.855Z,112.50
2022-08-12T06:25:59.873Z,112.50
2022-08-12T06:26:59.824Z,112.50
2022-08-12T06:28:06.496Z,112.50
2022-08-12T06:29:01.090Z,112.50
2022-08-12T06:30:10.302Z,112.50
2022-08-12T06:31:24.838Z,112.50
2022-08-12T06:32:00.760Z,112.50
2022-08-12T06:33:11.641Z,112.50
2022-08-12T06:35:22.555Z,112.50
2022-08-12T06:35:24.122Z,112.50
2022-08-12T06:36:00.966Z,112.50
2022-08-12T06:36:59.693Z,112.50
2022-08-12T06:37:59.678Z,112.50
2022-08-12T06:38:59.703Z,112.50
2022-08-12T06:40:03.614Z,112.50
2022-08-12T06:40:59.632Z,112.50
2022-08-12T06:42:05.024Z,112.50
2022-08-12T06:43:00.599Z,112.50
2022-08-12T06:44:06.279Z,112.50
2022-08-12T06:45:00.590Z,118.12
2022-08-12T06:45:59.609Z,118.12
2022-08-12T06:46:59.566Z,118.12
2022-08-12T06:47:59.553Z,118.12
2022-08-12T06:48:59.644Z,118.12
2022-08-12T06:49:59.510Z,118.12
2022-08-12T06:50:59.761Z,118.12
2022-08-12T06:51:59.552Z,118.12
2022-08-12T06:52:59.464Z,118.12
2022-08-12T06:53:59.551Z,118.12
2022-08-12T06:54:59.455Z,118.12
2022-08-12T06:55:59.492Z,118.12
2022-08-12T06:57:04.205Z,118.12
2022-08-12T06:58:07.507Z,118.12
2022-08-12T06:59:00.461Z,118.12
2022-08-12T06:59:59.441Z,118.12
2022-08-12T07:00:59.406Z,118.12
2022-08-12T07:01:59.361Z,118.12
2022-08-12T07:02:59.345Z,118.12
2022-08-12T07:04:14.252Z,118.12
2022-08-12T07:05:00.507Z,123.75
2022-08-12T07:05:59.314Z,123.75
2022-08-12T07:06:59.294Z,123.75
2022-08-12T07:07:59.284Z,123.75
2022-08-12T07:09:00.335Z,123.75
2022-08-12T07:10:06.110Z,123.75
2022-08-12T07:11:00.234Z,123.75
2022-08-12T07:11:59.232Z,123.75
2022-08-12T07:12:59.197Z,123.75
2022-08-12T07:14:11.995Z,123.75
2022-08-12T07:15:00.183Z,123.75
2022-08-12T07:16:03.267Z,123.75
2022-08-12T07:16:59.269Z,123.75
2022-08-12T07:17:59.135Z,123.75
2022-08-12T07:18:59.136Z,123.75
2022-08-12T07:20:04.335Z,123.75
2022-08-12T07:20:59.377Z,123.75
2022-08-12T07:22:02.099Z,123.75
2022-08-12T07:22:59.085Z,123.75
2022-08-12T07:23:59.152Z,129.38
2022-08-12T07:24:59.344Z,129.38
2022-08-12T07:25:59.052Z,129.38
2022-08-12T07:26:59.023Z,129.38
2022-08-12T07:27:59.375Z,129.38
2022-08-12T07:28:59.055Z,129.38
2022-08-12T07:30:04.860Z,129.38
2022-08-12T07:30:59.957Z,129.38
2022-08-12T07:31:58.984Z,129.38
2022-08-12T07:33:01.785Z,129.38
2022-08-12T07:33:58.926Z,129.38
2022-08-12T07:34:59.592Z,129.38
2022-08-12T07:35:58.958Z,129.38
2022-08-12T07:36:58.888Z,129.38
2022-08-12T07:37:58.894Z,129.38
2022-08-12T07:38:58.875Z,123.75
2022-08-12T07:40:00.439Z,123.75
2022-08-12T07:40:58.860Z,123.75
2022-08-12T07:41:58.830Z,129.38
2022-08-12T07:42:58.818Z,129.38
2022-08-12T07:44:03.879Z,129.38
2022-08-12T07:45:03.849Z,129.38
2022-08-12T07:45:58.794Z,129.38
2022-08-12T07:46:58.751Z,129.38
2022-08-12T07:47:58.770Z,129.38
2022-08-12T07:48:58.742Z,129.38
2022-08-12T07:50:05.804Z,129.38
2022-08-12T07:50:59.697Z,129.38
2022-08-12T07:51:58.705Z,129.38
2022-08-12T07:52:58.672Z,129.38
2022-08-12T07:54:03.073Z,129.38
2022-08-12T07:54:58.698Z,129.38
2022-08-12T07:55:58.657Z,129.38
2022-08-12T07:56:58.641Z,129.38
2022-08-12T07:58:02.562Z,135.00
2022-08-12T07:58:58.604Z,135.00
2022-08-12T07:59:58.590Z,135.00
2022-08-12T08:00:58.571Z,135.00
2022-08-12T08:02:00.373Z,135.00
2022-08-12T08:02:58.560Z,135.00
2022-08-12T08:03:58.546Z,135.00
2022-08-12T08:04:58.501Z,135.00
2022-08-12T08:05:58.539Z,135.00
2022-08-12T08:06:58.491Z,135.00
2022-08-12T08:07:58.486Z,135.00
2022-08-12T08:08:58.513Z,135.00
2022-08-12T08:09:59.525Z,135.00
2022-08-12T08:11:03.662Z,135.00
2022-08-12T08:11:59.419Z,135.00
2022-08-12T08:12:58.478Z,140.62
2022-08-12T08:13:58.432Z,140.62
2022-08-12T08:14:58.379Z,140.62
2022-08-12T08:16:03.503Z,140.62
2022-08-12T08:16:59.356Z,140.62
2022-08-12T08:17:58.374Z,140.62
2022-08-12T08:18:58.338Z,140.62
2022-08-12T08:20:03.057Z,140.62
2022-08-12T08:20:59.416Z,140.62
2022-08-12T08:21:58.624Z,140.62
2022-08-12T08:22:58.311Z,140.62
2022-08-12T08:24:04.656Z,140.62
2022-08-12T08:24:59.277Z,146.25
2022-08-12T08:25:58.255Z,146.25
2022-08-12T08:26:58.310Z,146.25
2022-08-12T08:27:58.215Z,146.25
2022-08-12T08:28:58.247Z,146.25
2022-08-12T08:29:58.181Z,146.25
2022-08-12T08:30:58.190Z,146.25
2022-08-12T08:31:58.270Z,146.25
2022-08-12T08:32:58.166Z,146.25
2022-08-12T08:34:05.039Z,151.88
2022-08-12T08:34:59.111Z,151.88
2022-08-12T08:35:58.133Z,151.88
2022-08-12T08:36:58.109Z,151.88
2022-08-12T08:37:58.082Z,151.88
2022-08-12T08:38:58.869Z,151.88
2022-08-12T08:39:58.119Z,151.88
2022-08-12T08:40:58.070Z,151.88
2022-08-12T08:42:15.146Z,151.88
2022-08-12T08:42:59.019Z,157.50
2022-08-12T08:43:58.083Z,157.50
2022-08-12T08:44:58.633Z,157.50
2022-08-12T08:45:57.989Z,157.50
2022-08-12T08:46:57.963Z,157.50
2022-08-12T08:48:00.289Z,157.50
2022-08-12T08:48:59.634Z,157.50
2022-08-12T08:49:57.957Z,157.50
2022-08-12T08:51:04.650Z,157.50
2022-08-12T08:51:58.899Z,163.12
2022-08-12T08:52:57.891Z,163.12
2022-08-12T08:53:57.890Z,163.12
2022-08-12T08:54:57.862Z,163.12
2022-08-12T08:56:05.782Z,163.12
2022-08-12T08:56:58.869Z,163.12
2022-08-12T08:57:57.817Z,163.12
2022-08-12T08:58:57.935Z,163.12
2022-08-12T08:59:57.840Z,168.75
2022-08-12T09:00:57.777Z,168.75
2022-08-12T09:01:57.850Z,168.75
2022-08-12T09:02:59.106Z,168.75
2022-08-12T09:05:08.566Z,168.75
2022-08-12T09:05:12.753Z,168.75
2022-08-12T09:06:02.389Z,168.75
2022-08-12T09:06:57.721Z,168.75
2022-08-12T09:08:08.893Z,174.38
2022-08-12T09:09:02.403Z,174.38
2022-08-12T09:10:03.539Z,174.38
2022-08-12T09:12:11.174Z,174.38
2022-08-12T09:13:01.124Z,174.38
2022-08-12T09:14:11.502Z,174.38
2022-08-12T09:14:58.594Z,174.38
2022-08-12T09:15:59.605Z,174.38
2022-08-12T09:16:57.565Z,180.00
2022-08-12T09:17:57.661Z,180.00
2022-08-12T09:18:57.550Z,180.00
2022-08-12T09:19:57.650Z,180.00
2022-08-12T09:20:58.183Z,180.00
2022-08-12T09:21:57.495Z,185.62
2022-08-12T09:22:57.568Z,185.62
2022-08-12T09:25:06.126Z,185.62
2022-08-12T09:25:57.477Z,185.62
2022-08-12T09:26:57.450Z,191.25
2022-08-12T09:28:58.511Z,191.25
2022-08-12T09:30:11.925Z,191.25
2022-08-12T09:30:58.944Z,191.25
2022-08-12T09:32:06.379Z,191.25
2022-08-12T09:33:14.231Z,191.25
2022-08-12T09:34:25.615Z,191.25
2022-08-12T09:34:58.337Z,196.88
2022-08-12T09:36:03.318Z,196.88
2022-08-12T09:37:01.647Z,196.88
2022-08-12T09:37:59.041Z,196.88
2022-08-12T09:38:59.189Z,196.88
2022-08-12T09:40:05.413Z,202.50
2022-08-12T09:42:09.128Z,202.50
2022-08-12T09:42:33.882Z,202.50
2022-08-12T09:44:01.203Z,202.50
2022-08-12T09:45:18.525Z,202.50
2022-08-12T09:46:12.008Z,202.50
2022-08-12T09:46:58.179Z,208.12
2022-08-12T09:48:00.030Z,208.12
2022-08-12T09:48:57.396Z,208.12
2022-08-12T09:49:57.823Z,208.12
2022-08-12T09:51:00.114Z,208.12
2022-08-12T09:51:57.102Z,213.75
2022-08-12T09:52:57.442Z,213.75
2022-08-12T09:54:08.593Z,213.75
2022-08-12T09:55:02.465Z,213.75
2022-08-12T09:56:07.329Z,219.38
2022-08-12T09:57:03.788Z,219.38
2022-08-12T09:58:46.680Z,219.38
2022-08-12T09:59:01.367Z,225.00
2022-08-12T10:00:16.084Z,225.00
2022-08-12T10:00:58.092Z,230.62
2022-08-12T10:02:44.155Z,230.62
2022-08-12T10:02:58.384Z,230.62
2022-08-12T10:04:04.589Z,236.25
2022-08-12T10:04:57.945Z,241.88
2022-08-12T10:06:19.404Z,253.12
2022-08-12T10:06:58.129Z,264.38
2022-08-12T10:07:56.897Z,264.38
2022-08-12T10:08:56.911Z,253.12
2022-08-12T10:09:59.137Z,247.50
2022-08-12T10:10:56.870Z,247.50
2022-08-12T10:12:10.688Z,253.12
2022-08-12T10:13:06.693Z,258.75
2022-08-12T10:13:57.858Z,264.38
2022-08-12T10:14:56.829Z,270.00
2022-08-12T10:16:01.765Z,275.62
2022-08-12T10:16:57.801Z,286.88
2022-08-12T10:18:07.395Z,292.50
2022-08-12T10:18:57.823Z,320.62
2022-08-12T10:19:59.661Z,438.75
2022-08-12T10:20:57.419Z,725.62
2022-08-12T10:21:57.073Z,922.50
2022-08-12T10:22:57.049Z,984.38
2022-08-12T10:23:57.368Z,1051.88
2022-08-12T10:24:56.712Z,1383.75
2022-08-12T10:26:38.186Z,2356.88
2022-08-12T10:26:57.763Z,3065.62
2022-08-12T10:28:05.805Z,2193.75
2022-08-12T10:29:02.694Z,781.88
2022-08-12T10:30:03.016Z,489.38
2022-08-12T10:30:58.248Z,433.12
2022-08-12T10:32:20.870Z,371.25
2022-08-12T10:32:58.572Z,326.25
2022-08-12T10:34:06.414Z,309.38
2022-08-12T10:34:57.614Z,298.12
2022-08-12T10:35:56.783Z,292.50
2022-08-12T10:36:56.538Z,298.12
2022-08-12T10:38:37.133Z,298.12
2022-08-12T10:38:57.514Z,298.12
2022-08-12T10:40:06.923Z,298.12
2022-08-12T10:40:57.724Z,303.75
2022-08-12T10:41:56.482Z,303.75
2022-08-12T10:42:56.469Z,303.75
2022-08-12T10:43:57.065Z,303.75
2022-08-12T10:44:56.461Z,303.75
2022-08-12T10:45:58.350Z,309.38
2022-08-12T10:46:56.449Z,309.38
2022-08-12T10:48:20.298Z,309.38
2022-08-12T10:49:05.706Z,309.38
2022-08-12T10:50:03.226Z,315.00
2022-08-12T10:51:03.325Z,315.00
2022-08-12T10:52:32.437Z,315.00
2022-08-12T10:52:57.342Z,315.00
2022-08-12T10:54:00.538Z,315.00
2022-08-12T10:54:56.367Z,315.00
2022-08-12T10:55:56.608Z,315.00
2022-08-12T10:56:56.338Z,320.62
2022-08-12T10:58:15.195Z,326.25
2022-08-12T10:58:57.253Z,326.25
2022-08-12T11:00:34.503Z,331.88
2022-08-12T11:01:49.097Z,331.88
2022-08-12T11:04:19.845Z,343.12
2022-08-12T11:04:25.452Z,360.00
2022-08-12T11:04:35.952Z,348.75
2022-08-12T11:04:57.538Z,365.62
2022-08-12T11:07:05.535Z,399.38
2022-08-12T11:07:08.559Z,382.50
2022-08-12T11:08:34.581Z,444.38
2022-08-12T11:08:57.262Z,1288.12
2022-08-12T11:10:01.565Z,3442.50
2022-08-12T11:10:57.112Z,3988.12
2022-08-12T11:12:36.017Z,4010.62
2022-08-12T11:12:59.890Z,4038.75
2022-08-12T11:13:56.087Z,2323.12
2022-08-12T11:14:56.094Z,776.25
2022-08-12T11:16:19.175Z,635.62
2022-08-12T11:17:33.775Z,590.62
2022-08-12T11:17:57.487Z,556.88
2022-08-12T11:18:57.156Z,534.38
2022-08-12T11:19:56.045Z,517.50
2022-08-12T11:20:57.873Z,500.62
2022-08-12T11:22:01.240Z,483.75
2022-08-12T11:22:58.543Z,472.50
2022-08-12T11:23:55.971Z,461.25
2022-08-12T11:24:55.936Z,461.25
2022-08-12T11:26:00.496Z,455.62
2022-08-12T11:27:55.888Z,461.25
2022-08-12T11:28:59.406Z,461.25
2022-08-12T11:30:05.297Z,466.88
2022-08-12T11:30:56.847Z,466.88
2022-08-12T11:32:02.513Z,466.88
2022-08-12T11:32:57.584Z,461.25
2022-08-12T11:34:06.771Z,461.25
2022-08-12T11:34:59.205Z,455.62
2022-08-12T11:35:59.608Z,450.00
2022-08-12T11:36:55.752Z,450.00
2022-08-12T11:37:58.909Z,450.00
2022-08-12T11:38:55.754Z,455.62
2022-08-12T11:40:56.695Z,461.25
2022-08-12T11:41:55.694Z,472.50
2022-08-12T11:43:00.332Z,495.00
2022-08-12T11:43:58.534Z,523.12
2022-08-12T11:44:55.693Z,613.12
2022-08-12T11:45:56.783Z,1726.88
2022-08-12T11:46:55.623Z,2885.62
2022-08-12T11:47:55.698Z,2373.75
2022-08-12T11:48:55.598Z,2103.75
2022-08-12T11:49:55.640Z,2160.00
2022-08-12T11:50:55.624Z,2733.75
2022-08-12T11:51:57.919Z,3633.75
2022-08-12T11:52:57.183Z,3926.25
2022-08-12T11:53:57.725Z,3746.25
2022-08-12T11:54:55.891Z,3645.00
2022-08-12T11:55:55.562Z,3718.12
2022-08-12T11:56:59.620Z,3746.25
2022-08-12T11:58:17.241Z,3690.00
2022-08-12T12:02:01.388Z,4145.62
2022-08-12T12:02:02.923Z,3780.00
2022-08-12T12:02:56.541Z,4173.75
2022-08-12T12:03:55.456Z,4089.38
2022-08-12T12:04:55.430Z,4168.12
2022-08-12T12:05:55.400Z,4128.75
2022-08-12T12:06:56.394Z,4016.25
2022-08-12T12:08:38.252Z,3988.12
2022-08-12T12:08:56.423Z,3751.88
2022-08-12T12:09:55.733Z,3526.88
2022-08-12T12:10:55.347Z,3532.50
2022-08-12T12:11:55.337Z,3746.25
2022-08-12T12:12:55.350Z,3898.12
2022-08-12T12:14:07.979Z,3875.62
2022-08-12T12:14:58.627Z,3853.12
2022-08-12T12:15:55.288Z,2643.75
2022-08-12T12:16:55.313Z,1102.50
2022-08-12T12:17:55.894Z,849.38
2022-08-12T12:18:55.354Z,804.38
2022-08-12T12:19:56.206Z,781.88
2022-08-12T12:20:55.270Z,770.62
2022-08-12T12:21:55.229Z,765.00
2022-08-12T12:22:55.205Z,759.38
2022-08-12T12:23:55.193Z,753.75
2022-08-12T12:24:56.224Z,753.75
2022-08-12T12:26:06.894Z,753.75
2022-08-12T12:27:00.221Z,759.38
2022-08-12T12:28:04.107Z,765.00
2022-08-12T12:28:56.179Z,770.62
2022-08-12T12:30:18.006Z,781.88
2022-08-12T12:30:56.114Z,798.75
2022-08-12T12:32:10.414Z,826.88
2022-08-12T12:32:56.138Z,860.62
2022-08-12T12:33:57.783Z,1085.62
2022-08-12T12:35:13.848Z,2615.62
2022-08-12T12:36:17.068Z,3892.50
2022-08-12T12:36:56.055Z,3864.38
2022-08-12T12:38:04.287Z,3746.25
2022-08-12T12:38:56.074Z,3802.50
2022-08-12T12:39:55.843Z,4027.50
2022-08-12T12:40:55.018Z,3886.88
2022-08-12T12:42:54.379Z,3645.00
2022-08-12T12:43:00.456Z,3695.62
2022-08-12T12:44:03.743Z,3847.50
2022-08-12T12:44:55.988Z,3870.00
2022-08-12T12:45:54.984Z,3796.88
2022-08-12T12:46:54.964Z,3571.88
2022-08-12T12:47:55.021Z,3583.12
2022-08-12T12:48:54.912Z,3622.50
2022-08-12T12:49:54.928Z,3819.38
2022-08-12T12:50:54.909Z,3943.12
2022-08-12T12:52:19.931Z,3903.75